Honaunau, HI

6:08 AM HST on May 26, 2015 (GMT -1000)
KEE KEE st Neighborhood | | Change Station
CLOSE
Current Station
Personal Weather Station
Location: Kealakekua, HI
Elevation: 1388 ft
Nearby Weather Stations

Elev 1388 ft 19.51 °N, 155.93 °W | Updated 3 seconds ago

Mostly Cloudy
Mostly Cloudy
67.5 °F
Feels Like 67.5 °F
N
0.0
Wind Variable Wind from North
Gusts 0.0 mph

Today
High -- | Low -- °F
--% Chance of Precip.
Yesterday
High -- | Low -- °F
Precip. -- in
5:45 AM 6:56 PM
First Quarter, 59% visible
Pressure 29.91 in
Visibility 10.0 miles
Clouds Few 3000 ft
Mostly Cloudy 4600 ft
Mostly Cloudy 8000 ft
Dew Point 62 °F
Humidity 81%
Rainfall 0.00 in
Snow Depth Not available.
UV 0.0 out of 12
Pollen Not available.
Air Quality Not available.
Flu Activity Local Activity
METAR PHKO 261553Z 12004KT 10SM FEW030 BKN046 BKN080 23/18 A2991 RMK AO2 SLP128 T02330183 $

More Conditions Fewer Conditions

Pressure 29.91 in
Visibility 10.0 miles
Clouds Few 3000 ft
Mostly Cloudy 4600 ft
Mostly Cloudy 8000 ft
Dew Point 62 °F
Humidity 81%
Rainfall 0.00 in
Snow Depth Not available.
UV 0.0 out of 12
Pollen Not available.
Air Quality Not available.
Flu Activity Local Activity
METAR PHKO 261553Z 12004KT 10SM FEW030 BKN046 BKN080 23/18 A2991 RMK AO2 SLP128 T02330183 $

More Conditions Fewer Conditions

10-Day Weather Forecast

Almanac

Astronomy

May. 26, 2015 Rise Set
Actual Time
Civil Twilight
Nautical Twilight
Astronomical Twilight
Moon
Length of Visible Light
Length of Day
Tomorrow will be .
, % of the Moon is Illuminated

Today's Extremes

State Highs State Lows

Community

WunderPhotos

Upload Photos

1,824,375 photos uploaded!

WunderBlogs® & News

Nearby

Air Quality

  Air Quality AQ Index Pollutant
Not available.

Snow Depth

Station Depth Elevation

Earthquake Activity

City Distance Mag. Time & Date
Minimum magnitude displayed is 2.5.

Coastal Water Temperatures

Place Temperature

Stations

Nearby Weather Stations

Station Location Temp. Windchill Dew Point Humidity Wind Precip. Elev Updated Type